Elettra — H9AK — position and weather

sailwx.info

Track history (hours):
 
Tides and Currents Weather Stations Pressure Air Temp Water Temp Dewpoint Dewpoint Depression Visibility Wind Speed Wind Dir Waves Ship Positions

Elettra

Last reported at 2014-Oct-07 07:22 UTC. Time now 2014-Oct-24 13:34 UTC.
Position S 32°19' E 152°51'.
Warning: this ship's position is 17 days out of date.

Length 254 m; draft 13.5 m.

Type: Ship. MMSI: 371188000.

Date/timePositionNaut miles runAvg speedWind from/ knotsBaromVisibWave heightAir tempDewpointWater temp
2014-Oct-07 07:22S 32°19' E 152°51'1111.8
2014-Oct-07 06:24S 32°30' E 152°48'1011.8
2014-Oct-07 05:33S 32°39' E 152°44'1212.1
2014-Oct-07 04:33S 32°46' E 152°32'1312.6
2014-Oct-07 03:33S 32°53' E 152°19'1211.8
2014-Oct-07 02:33S 32°56' E 152°06'1211.3
2014-Oct-07 01:30S 32°58' E 151°52'5 5.6
2014-Oct-07 00:33S 32°55' E 151°46'1 0.7
2014-Oct-06 23:31S 32°54' E 151°46'0 0.0
2014-Oct-06 22:28S 32°54' E 151°46'0 0.1
2014-Oct-06 21:31S 32°54' E 151°46'0 0.0
2014-Oct-06 20:31S 32°54' E 151°46'0 0.0
2014-Oct-06 19:31S 32°54' E 151°46'0 0.1
2014-Oct-06 18:31S 32°54' E 151°46'0 0.0
2014-Oct-06 17:31S 32°54' E 151°46'0 0.1
2014-Oct-06 16:31S 32°54' E 151°46'0 0.1
2014-Oct-06 15:31S 32°54' E 151°46'0 0.1
2014-Oct-06 14:31S 32°54' E 151°46'0 0.1
2014-Oct-06 13:31S 32°54' E 151°46'0 0.0
2014-Oct-06 12:19S 32°54' E 151°46'0 0.0
2014-Oct-06 11:31S 32°54' E 151°46'0 0.0
2014-Oct-06 10:31S 32°54' E 151°46'0 0.0
2014-Oct-06 09:31S 32°54' E 151°46'0 0.0
2014-Oct-06 08:31S 32°54' E 151°46'0 0.0
2014-Oct-06 07:31S 32°54' E 151°46'0 0.0
2014-Oct-06 06:19S 32°54' E 151°46'0 0.0
2014-Oct-06 05:31S 32°54' E 151°46'0 0.0
2014-Oct-06 04:25S 32°54' E 151°46'0 0.0
2014-Oct-06 03:19S 32°54' E 151°46'0 0.0
2014-Oct-06 02:31S 32°54' E 151°46'0 0.0
2014-Oct-06 01:19S 32°54' E 151°46'0 0.0
2014-Oct-06 00:25S 32°54' E 151°46'0 0.1
2014-Oct-05 23:31S 32°54' E 151°46'0 0.0
2014-Oct-05 22:28S 32°54' E 151°46'0 0.0
2014-Oct-05 21:31S 32°54' E 151°46'0 0.0
2014-Oct-05 20:31S 32°54' E 151°46'0 0.0
2014-Oct-05 19:25S 32°54' E 151°46'0 0.0
2014-Oct-05 18:19S 32°54' E 151°46'0 0.0
2014-Oct-05 17:31S 32°54' E 151°46'0 0.0
2014-Oct-05 16:31S 32°54' E 151°46'0 0.0
2014-Oct-05 15:31S 32°54' E 151°46'0 0.0
2014-Oct-05 14:31S 32°54' E 151°46'0 0.0
2014-Oct-05 13:31S 32°54' E 151°46'0 0.0
2014-Oct-05 12:19S 32°54' E 151°46'0 0.1
2014-Oct-05 11:31S 32°54' E 151°46'0 0.0
2014-Oct-05 10:28S 32°54' E 151°46'0 0.0
2014-Oct-05 09:31S 32°54' E 151°46'0 0.0
2014-Oct-05 08:31S 32°54' E 151°46'0 0.0
2014-Oct-05 07:31S 32°54' E 151°46'0 0.0
2014-Oct-05 06:31S 32°54' E 151°46'0 0.0
2014-Oct-05 05:25S 32°54' E 151°46'0 0.0
2014-Oct-05 04:25S 32°54' E 151°46'0 0.0
2014-Oct-05 02:19S 32°54' E 151°46'0 0.1
2014-Oct-05 01:25S 32°54' E 151°46'1 0.6
2014-Oct-05 00:33S 32°54' E 151°46'6 5.5
2014-Oct-04 23:32S 32°57' E 151°52'8 8.4
2014-Oct-04 22:34S 33°05' E 151°50'7 6.6
2014-Oct-04 21:33S 33°08' E 151°44'0 0.1
2014-Oct-04 20:29S 33°08' E 151°44'0 0.0
2014-Oct-04 19:32S 33°08' E 151°44'0 0.0
2014-Oct-04 18:32S 33°08' E 151°44'0 0.1
2014-Oct-04 17:32S 33°08' E 151°43'0 0.0
2014-Oct-04 16:26S 33°08' E 151°44'0 0.1
2014-Oct-04 15:29S 33°08' E 151°43'0 0.1
2014-Oct-04 14:23S 33°08' E 151°44'0 0.0
2014-Oct-04 13:32S 33°08' E 151°44'0 0.0
2014-Oct-04 11:32S 33°08' E 151°43'0 0.0
2014-Oct-04 10:29S 33°08' E 151°43'0 0.0
2014-Oct-04 09:32S 33°08' E 151°43'0 0.1
2014-Oct-04 08:32S 33°08' E 151°43'0 0.0
2014-Oct-04 07:26S 33°08' E 151°43'0 0.0
2014-Oct-04 06:32S 33°08' E 151°43'0 0.0
2014-Oct-04 05:26S 33°08' E 151°43'0 0.0
2014-Oct-04 03:26S 33°08' E 151°43'0 0.0
2014-Oct-04 02:32S 33°08' E 151°43'0 0.0
2014-Oct-04 01:23S 33°08' E 151°43'0 0.0
2014-Oct-04 00:26S 33°08' E 151°43'0 0.0
2014-Oct-02 14:07S 33°08' E 151°44'1 1.7
2014-Oct-02 13:21S 33°07' E 151°43'5 6.0
2014-Oct-02 12:33S 33°06' E 151°48'1212.4
2014-Oct-02 11:33S 33°00' E 152°01'1212.1
2014-Oct-02 10:33S 32°55' E 152°14'1212.1
2014-Oct-02 09:33S 32°50' E 152°28'4 4.0
2014-Oct-02 08:33S 32°48' E 152°32'9 9.2
2014-Oct-02 07:33S 32°42' E 152°40'1212.5
2014-Oct-02 06:33S 32°34' E 152°51'31 0.9
2014-Sep-30 18:25S 32°57' E 153°17'1 1.3
2014-Sep-30 17:25S 32°56' E 153°18'1 1.4
2014-Sep-30 16:31S 32°55' E 153°19'1 1.4
2014-Sep-30 15:28S 32°54' E 153°20'2 1.6
2014-Sep-30 14:31S 32°53' E 153°21'2 1.8
2014-Sep-30 13:31S 32°51' E 153°22'2 1.8
2014-Sep-30 12:31S 32°50' E 153°23'2 2.0
2014-Sep-30 11:31S 32°48' E 153°24'3 2.3
2014-Sep-30 10:22S 32°45' E 153°25'2 2.8
2014-Sep-30 09:33S 32°43' E 153°25'3 3.4
2014-Sep-30 08:33S 32°39' E 153°25'3 3.2
2014-Sep-30 07:33S 32°36' E 153°24'3 3.1
2014-Sep-30 06:33S 32°33' E 153°24'3 3.1
2014-Sep-30 05:33S 32°30' E 153°24'3 2.9
2014-Sep-30 04:32S 32°27' E 153°25'3 2.7
2014-Sep-30 03:32S 32°25' E 153°25'6 2.4
2014-Sep-30 01:14S 32°19' E 153°27'14 2.4
2014-Sep-29 19:32S 32°06' E 153°32'2 2.2
2014-Sep-29 18:32S 32°04' E 153°33'2 2.1
2014-Sep-29 17:32S 32°02' E 153°34'2 2.2
2014-Sep-29 16:32S 32°00' E 153°35'2 2.2
2014-Sep-29 15:32S 31°58' E 153°36'2 2.2
2014-Sep-29 14:29S 31°56' E 153°38'11 2.2
2014-Sep-29 09:21S 31°48' E 153°47'2 2.2
2014-Sep-29 08:33S 31°47' E 153°48'  
Track history (hours):
 
Tides and Currents Weather Stations Pressure Air Temp Water Temp Dewpoint Dewpoint Depression Visibility Wind Speed Wind Dir Waves Ship Positions

Elettra

Last reported at 2014-Oct-07 07:22 UTC. Time now 2014-Oct-24 13:34 UTC.
Position S 32°19' E 152°51'.
Warning: this ship's position is 17 days out of date.

Length 254 m; draft 13.5 m.

Type: Ship. MMSI: 371188000.

Date/timePositionNaut miles runAvg speedWind from/ knotsBaromVisibWave heightAir tempDewpointWater temp
2014-Oct-07 07:22S 32°19' E 152°51'1111.8
2014-Oct-07 06:24S 32°30' E 152°48'1011.8
2014-Oct-07 05:33S 32°39' E 152°44'1212.1
2014-Oct-07 04:33S 32°46' E 152°32'1312.6
2014-Oct-07 03:33S 32°53' E 152°19'1211.8
2014-Oct-07 02:33S 32°56' E 152°06'1211.3
2014-Oct-07 01:30S 32°58' E 151°52'5 5.6
2014-Oct-07 00:33S 32°55' E 151°46'1 0.7
2014-Oct-06 23:31S 32°54' E 151°46'0 0.0
2014-Oct-06 22:28S 32°54' E 151°46'0 0.1
2014-Oct-06 21:31S 32°54' E 151°46'0 0.0
2014-Oct-06 20:31S 32°54' E 151°46'0 0.0
2014-Oct-06 19:31S 32°54' E 151°46'0 0.1
2014-Oct-06 18:31S 32°54' E 151°46'0 0.0
2014-Oct-06 17:31S 32°54' E 151°46'0 0.1
2014-Oct-06 16:31S 32°54' E 151°46'0 0.1
2014-Oct-06 15:31S 32°54' E 151°46'0 0.1
2014-Oct-06 14:31S 32°54' E 151°46'0 0.1
2014-Oct-06 13:31S 32°54' E 151°46'0 0.0
2014-Oct-06 12:19S 32°54' E 151°46'0 0.0
2014-Oct-06 11:31S 32°54' E 151°46'0 0.0
2014-Oct-06 10:31S 32°54' E 151°46'0 0.0
2014-Oct-06 09:31S 32°54' E 151°46'0 0.0
2014-Oct-06 08:31S 32°54' E 151°46'0 0.0
2014-Oct-06 07:31S 32°54' E 151°46'0 0.0
2014-Oct-06 06:19S 32°54' E 151°46'0 0.0
2014-Oct-06 05:31S 32°54' E 151°46'0 0.0
2014-Oct-06 04:25S 32°54' E 151°46'0 0.0
2014-Oct-06 03:19S 32°54' E 151°46'0 0.0
2014-Oct-06 02:31S 32°54' E 151°46'0 0.0
2014-Oct-06 01:19S 32°54' E 151°46'0 0.0
2014-Oct-06 00:25S 32°54' E 151°46'0 0.1
2014-Oct-05 23:31S 32°54' E 151°46'0 0.0
2014-Oct-05 22:28S 32°54' E 151°46'0 0.0
2014-Oct-05 21:31S 32°54' E 151°46'0 0.0
2014-Oct-05 20:31S 32°54' E 151°46'0 0.0
2014-Oct-05 19:25S 32°54' E 151°46'0 0.0
2014-Oct-05 18:19S 32°54' E 151°46'0 0.0
2014-Oct-05 17:31S 32°54' E 151°46'0 0.0
2014-Oct-05 16:31S 32°54' E 151°46'0 0.0
2014-Oct-05 15:31S 32°54' E 151°46'0 0.0
2014-Oct-05 14:31S 32°54' E 151°46'0 0.0
2014-Oct-05 13:31S 32°54' E 151°46'0 0.0
2014-Oct-05 12:19S 32°54' E 151°46'0 0.1
2014-Oct-05 11:31S 32°54' E 151°46'0 0.0
2014-Oct-05 10:28S 32°54' E 151°46'0 0.0
2014-Oct-05 09:31S 32°54' E 151°46'0 0.0
2014-Oct-05 08:31S 32°54' E 151°46'0 0.0
2014-Oct-05 07:31S 32°54' E 151°46'0 0.0
2014-Oct-05 06:31S 32°54' E 151°46'0 0.0
2014-Oct-05 05:25S 32°54' E 151°46'0 0.0
2014-Oct-05 04:25S 32°54' E 151°46'0 0.0
2014-Oct-05 02:19S 32°54' E 151°46'0 0.1
2014-Oct-05 01:25S 32°54' E 151°46'1 0.6
2014-Oct-05 00:33S 32°54' E 151°46'6 5.5
2014-Oct-04 23:32S 32°57' E 151°52'8 8.4
2014-Oct-04 22:34S 33°05' E 151°50'7 6.6
2014-Oct-04 21:33S 33°08' E 151°44'0 0.1
2014-Oct-04 20:29S 33°08' E 151°44'0 0.0
2014-Oct-04 19:32S 33°08' E 151°44'0 0.0
2014-Oct-04 18:32S 33°08' E 151°44'0 0.1
2014-Oct-04 17:32S 33°08' E 151°43'0 0.0
2014-Oct-04 16:26S 33°08' E 151°44'0 0.1
2014-Oct-04 15:29S 33°08' E 151°43'0 0.1
2014-Oct-04 14:23S 33°08' E 151°44'0 0.0
2014-Oct-04 13:32S 33°08' E 151°44'0 0.0
2014-Oct-04 11:32S 33°08' E 151°43'0 0.0
2014-Oct-04 10:29S 33°08' E 151°43'0 0.0
2014-Oct-04 09:32S 33°08' E 151°43'0 0.1
2014-Oct-04 08:32S 33°08' E 151°43'0 0.0
2014-Oct-04 07:26S 33°08' E 151°43'0 0.0
2014-Oct-04 06:32S 33°08' E 151°43'0 0.0
2014-Oct-04 05:26S 33°08' E 151°43'0 0.0
2014-Oct-04 03:26S 33°08' E 151°43'0 0.0
2014-Oct-04 02:32S 33°08' E 151°43'0 0.0
2014-Oct-04 01:23S 33°08' E 151°43'0 0.0
2014-Oct-04 00:26S 33°08' E 151°43'0 0.0
2014-Oct-02 14:07S 33°08' E 151°44'1 1.7
2014-Oct-02 13:21S 33°07' E 151°43'5 6.0
2014-Oct-02 12:33S 33°06' E 151°48'1212.4
2014-Oct-02 11:33S 33°00' E 152°01'1212.1
2014-Oct-02 10:33S 32°55' E 152°14'1212.1
2014-Oct-02 09:33S 32°50' E 152°28'4 4.0
2014-Oct-02 08:33S 32°48' E 152°32'9 9.2
2014-Oct-02 07:33S 32°42' E 152°40'1212.5
2014-Oct-02 06:33S 32°34' E 152°51'31 0.9
2014-Sep-30 18:25S 32°57' E 153°17'1 1.3
2014-Sep-30 17:25S 32°56' E 153°18'1 1.4
2014-Sep-30 16:31S 32°55' E 153°19'1 1.4
2014-Sep-30 15:28S 32°54' E 153°20'2 1.6
2014-Sep-30 14:31S 32°53' E 153°21'2 1.8
2014-Sep-30 13:31S 32°51' E 153°22'2 1.8
2014-Sep-30 12:31S 32°50' E 153°23'2 2.0
2014-Sep-30 11:31S 32°48' E 153°24'3 2.3
2014-Sep-30 10:22S 32°45' E 153°25'2 2.8
2014-Sep-30 09:33S 32°43' E 153°25'3 3.4
2014-Sep-30 08:33S 32°39' E 153°25'3 3.2
2014-Sep-30 07:33S 32°36' E 153°24'3 3.1
2014-Sep-30 06:33S 32°33' E 153°24'3 3.1
2014-Sep-30 05:33S 32°30' E 153°24'3 2.9
2014-Sep-30 04:32S 32°27' E 153°25'3 2.7
2014-Sep-30 03:32S 32°25' E 153°25'6 2.4
2014-Sep-30 01:14S 32°19' E 153°27'14 2.4
2014-Sep-29 19:32S 32°06' E 153°32'2 2.2
2014-Sep-29 18:32S 32°04' E 153°33'2 2.1
2014-Sep-29 17:32S 32°02' E 153°34'2 2.2
2014-Sep-29 16:32S 32°00' E 153°35'2 2.2
2014-Sep-29 15:32S 31°58' E 153°36'2 2.2
2014-Sep-29 14:29S 31°56' E 153°38'11 2.2
2014-Sep-29 09:21S 31°48' E 153°47'2 2.2
2014-Sep-29 08:33S 31°47' E 153°48'  

Dump ship's entire track history